sensor_id;sensor_type;location;lat;lon;timestamp;P1;durP1;ratioP1;P2;durP2;ratioP2
54428;SDS011;40337;52.978;6.310;2023-05-10T00:00:11;13.00;;;11.57;;
54428;SDS011;40337;52.978;6.310;2023-05-10T00:02:37;12.23;;;11.02;;
54428;SDS011;40337;52.978;6.310;2023-05-10T00:05:04;11.82;;;10.73;;
54428;SDS011;40337;52.978;6.310;2023-05-10T00:07:30;11.95;;;10.75;;
54428;SDS011;40337;52.978;6.310;2023-05-10T00:09:55;11.90;;;10.77;;
54428;SDS011;40337;52.978;6.310;2023-05-10T00:12:21;11.80;;;10.70;;
54428;SDS011;40337;52.978;6.310;2023-05-10T00:14:46;12.05;;;10.85;;
54428;SDS011;40337;52.978;6.310;2023-05-10T00:17:12;11.55;;;10.45;;
54428;SDS011;40337;52.978;6.310;2023-05-10T00:19:37;12.20;;;11.00;;
54428;SDS011;40337;52.978;6.310;2023-05-10T00:22:03;11.32;;;10.18;;
54428;SDS011;40337;52.978;6.310;2023-05-10T00:24:28;12.18;;;10.98;;
54428;SDS011;40337;52.978;6.310;2023-05-10T00:26:54;12.52;;;11.23;;
54428;SDS011;40337;52.978;6.310;2023-05-10T00:29:20;13.65;;;11.65;;
54428;SDS011;40337;52.978;6.310;2023-05-10T00:31:45;13.27;;;11.88;;
54428;SDS011;40337;52.978;6.310;2023-05-10T00:34:11;13.95;;;12.38;;
54428;SDS011;40337;52.978;6.310;2023-05-10T00:36:36;15.45;;;12.85;;
54428;SDS011;40337;52.978;6.310;2023-05-10T00:39:02;15.23;;;12.40;;
54428;SDS011;40337;52.978;6.310;2023-05-10T00:41:28;14.85;;;13.15;;
54428;SDS011;40337;52.978;6.310;2023-05-10T00:43:56;15.63;;;13.50;;
54428;SDS011;40337;52.978;6.310;2023-05-10T00:46:22;16.10;;;13.38;;
54428;SDS011;40337;52.978;6.310;2023-05-10T00:48:48;15.90;;;13.70;;
54428;SDS011;40337;52.978;6.310;2023-05-10T00:51:14;16.23;;;13.45;;
54428;SDS011;40337;52.978;6.310;2023-05-10T00:53:39;18.25;;;14.80;;
54428;SDS011;40337;52.978;6.310;2023-05-10T00:56:05;16.75;;;13.50;;
54428;SDS011;40337;52.978;6.310;2023-05-10T00:58:31;16.65;;;14.48;;
54428;SDS011;40337;52.978;6.310;2023-05-10T01:00:57;17.63;;;14.90;;
54428;SDS011;40337;52.978;6.310;2023-05-10T01:03:23;15.80;;;13.93;;
54428;SDS011;40337;52.978;6.310;2023-05-10T01:05:50;17.63;;;14.70;;
54428;SDS011;40337;52.978;6.310;2023-05-10T01:08:15;15.43;;;13.75;;
54428;SDS011;40337;52.978;6.310;2023-05-10T01:10:41;16.23;;;14.32;;
54428;SDS011;40337;52.978;6.310;2023-05-10T01:13:08;16.50;;;14.73;;
54428;SDS011;40337;52.978;6.310;2023-05-10T01:15:34;15.65;;;13.65;;
54428;SDS011;40337;52.978;6.310;2023-05-10T01:18:01;18.23;;;14.25;;
54428;SDS011;40337;52.978;6.310;2023-05-10T01:20:28;16.15;;;13.75;;
54428;SDS011;40337;52.978;6.310;2023-05-10T01:28:39;15.82;;;13.52;;
54428;SDS011;40337;52.978;6.310;2023-05-10T01:34:20;15.55;;;13.27;;
54428;SDS011;40337;52.978;6.310;2023-05-10T01:36:55;16.60;;;14.65;;
54428;SDS011;40337;52.978;6.310;2023-05-10T01:39:44;15.65;;;13.55;;
54428;SDS011;40337;52.978;6.310;2023-05-10T01:42:17;15.82;;;13.40;;
54428;SDS011;40337;52.978;6.310;2023-05-10T01:44:49;16.80;;;14.25;;
54428;SDS011;40337;52.978;6.310;2023-05-10T01:50:22;18.38;;;13.88;;
54428;SDS011;40337;52.978;6.310;2023-05-10T01:52:54;16.58;;;14.48;;
54428;SDS011;40337;52.978;6.310;2023-05-10T01:55:23;15.13;;;13.50;;
54428;SDS011;40337;52.978;6.310;2023-05-10T01:57:53;16.55;;;13.82;;
54428;SDS011;40337;52.978;6.310;2023-05-10T02:00:25;15.55;;;13.93;;
54428;SDS011;40337;52.978;6.310;2023-05-10T02:02:52;15.30;;;13.05;;
54428;SDS011;40337;52.978;6.310;2023-05-10T02:05:18;16.17;;;13.75;;
54428;SDS011;40337;52.978;6.310;2023-05-10T02:07:45;15.18;;;12.93;;
54428;SDS011;40337;52.978;6.310;2023-05-10T02:10:11;15.75;;;13.20;;
54428;SDS011;40337;52.978;6.310;2023-05-10T02:12:41;14.88;;;13.30;;
54428;SDS011;40337;52.978;6.310;2023-05-10T02:15:10;15.75;;;13.32;;
54428;SDS011;40337;52.978;6.310;2023-05-10T02:17:37;17.67;;;12.90;;
54428;SDS011;40337;52.978;6.310;2023-05-10T02:20:04;15.30;;;13.40;;
54428;SDS011;40337;52.978;6.310;2023-05-10T02:22:32;16.77;;;14.13;;
54428;SDS011;40337;52.978;6.310;2023-05-10T02:24:59;15.63;;;13.93;;
54428;SDS011;40337;52.978;6.310;2023-05-10T02:27:27;16.67;;;12.98;;
54428;SDS011;40337;52.978;6.310;2023-05-10T02:29:54;16.08;;;13.57;;
54428;SDS011;40337;52.978;6.310;2023-05-10T02:32:21;13.98;;;12.45;;
54428;SDS011;40337;52.978;6.310;2023-05-10T02:34:49;16.20;;;13.00;;
54428;SDS011;40337;52.978;6.310;2023-05-10T02:37:17;14.70;;;12.65;;
54428;SDS011;40337;52.978;6.310;2023-05-10T02:39:48;15.15;;;12.52;;
54428;SDS011;40337;52.978;6.310;2023-05-10T02:42:16;13.90;;;12.40;;
54428;SDS011;40337;52.978;6.310;2023-05-10T02:44:45;16.02;;;12.77;;
54428;SDS011;40337;52.978;6.310;2023-05-10T02:47:13;14.93;;;12.70;;
54428;SDS011;40337;52.978;6.310;2023-05-10T02:49:39;16.08;;;12.70;;
54428;SDS011;40337;52.978;6.310;2023-05-10T02:52:05;14.63;;;12.27;;
54428;SDS011;40337;52.978;6.310;2023-05-10T02:54:34;14.05;;;12.43;;
54428;SDS011;40337;52.978;6.310;2023-05-10T02:57:08;13.73;;;12.18;;
54428;SDS011;40337;52.978;6.310;2023-05-10T02:59:40;15.13;;;12.05;;
54428;SDS011;40337;52.978;6.310;2023-05-10T03:02:07;15.25;;;12.65;;
54428;SDS011;40337;52.978;6.310;2023-05-10T03:04:34;17.92;;;11.55;;
54428;SDS011;40337;52.978;6.310;2023-05-10T03:06:59;14.40;;;11.40;;
54428;SDS011;40337;52.978;6.310;2023-05-10T03:09:25;13.40;;;11.68;;
54428;SDS011;40337;52.978;6.310;2023-05-10T03:12:01;12.38;;;11.02;;
54428;SDS011;40337;52.978;6.310;2023-05-10T03:14:57;13.98;;;11.20;;
54428;SDS011;40337;52.978;6.310;2023-05-10T03:20:31;11.57;;;10.13;;
54428;SDS011;40337;52.978;6.310;2023-05-10T03:23:12;13.35;;;10.93;;
54428;SDS011;40337;52.978;6.310;2023-05-10T03:25:46;13.45;;;11.25;;
54428;SDS011;40337;52.978;6.310;2023-05-10T03:28:14;11.80;;;10.60;;
54428;SDS011;40337;52.978;6.310;2023-05-10T03:30:41;12.10;;;10.50;;
54428;SDS011;40337;52.978;6.310;2023-05-10T03:33:08;11.70;;;10.50;;
54428;SDS011;40337;52.978;6.310;2023-05-10T03:35:34;12.48;;;10.48;;
54428;SDS011;40337;52.978;6.310;2023-05-10T03:37:59;12.10;;;10.80;;
54428;SDS011;40337;52.978;6.310;2023-05-10T03:40:25;11.07;;;9.88;;
54428;SDS011;40337;52.978;6.310;2023-05-10T03:42:53;12.15;;;10.82;;
54428;SDS011;40337;52.978;6.310;2023-05-10T03:45:19;10.75;;;9.75;;
54428;SDS011;40337;52.978;6.310;2023-05-10T03:47:45;12.07;;;10.55;;
54428;SDS011;40337;52.978;6.310;2023-05-10T03:50:10;12.35;;;10.07;;
54428;SDS011;40337;52.978;6.310;2023-05-10T03:52:36;13.77;;;9.50;;
54428;SDS011;40337;52.978;6.310;2023-05-10T03:55:04;11.02;;;9.93;;
54428;SDS011;40337;52.978;6.310;2023-05-10T03:57:30;12.30;;;10.45;;
54428;SDS011;40337;52.978;6.310;2023-05-10T03:59:55;11.07;;;9.98;;
54428;SDS011;40337;52.978;6.310;2023-05-10T04:02:21;12.18;;;10.95;;
54428;SDS011;40337;52.978;6.310;2023-05-10T04:04:47;12.05;;;10.85;;
54428;SDS011;40337;52.978;6.310;2023-05-10T04:07:13;11.80;;;10.70;;
54428;SDS011;40337;52.978;6.310;2023-05-10T04:09:39;11.90;;;10.70;;
54428;SDS011;40337;52.978;6.310;2023-05-10T04:12:04;11.93;;;10.73;;
54428;SDS011;40337;52.978;6.310;2023-05-10T04:14:30;11.57;;;10.48;;
54428;SDS011;40337;52.978;6.310;2023-05-10T04:16:56;11.18;;;10.07;;
54428;SDS011;40337;52.978;6.310;2023-05-10T04:19:21;11.68;;;10.13;;
54428;SDS011;40337;52.978;6.310;2023-05-10T04:21:47;11.52;;;10.48;;
54428;SDS011;40337;52.978;6.310;2023-05-10T04:24:13;11.48;;;10.38;;
54428;SDS011;40337;52.978;6.310;2023-05-10T04:26:38;11.88;;;10.68;;
54428;SDS011;40337;52.978;6.310;2023-05-10T04:29:04;11.20;;;10.20;;
54428;SDS011;40337;52.978;6.310;2023-05-10T04:31:29;10.80;;;9.70;;
54428;SDS011;40337;52.978;6.310;2023-05-10T04:33:55;10.75;;;9.65;;
54428;SDS011;40337;52.978;6.310;2023-05-10T04:36:20;10.65;;;9.65;;
54428;SDS011;40337;52.978;6.310;2023-05-10T04:38:46;10.15;;;9.15;;
54428;SDS011;40337;52.978;6.310;2023-05-10T04:41:11;9.45;;;8.55;;
54428;SDS011;40337;52.978;6.310;2023-05-10T04:43:37;9.63;;;8.73;;
54428;SDS011;40337;52.978;6.310;2023-05-10T04:46:04;9.43;;;8.48;;
54428;SDS011;40337;52.978;6.310;2023-05-10T04:48:30;9.38;;;8.38;;
54428;SDS011;40337;52.978;6.310;2023-05-10T04:50:55;9.18;;;8.27;;
54428;SDS011;40337;52.978;6.310;2023-05-10T04:53:21;9.32;;;8.40;;
54428;SDS011;40337;52.978;6.310;2023-05-10T04:55:47;9.40;;;8.50;;
54428;SDS011;40337;52.978;6.310;2023-05-10T04:58:13;9.60;;;8.68;;
54428;SDS011;40337;52.978;6.310;2023-05-10T05:00:38;8.80;;;8.02;;
54428;SDS011;40337;52.978;6.310;2023-05-10T05:03:04;9.50;;;8.60;;
54428;SDS011;40337;52.978;6.310;2023-05-10T05:05:30;9.98;;;8.98;;
54428;SDS011;40337;52.978;6.310;2023-05-10T05:07:55;9.25;;;8.35;;
54428;SDS011;40337;52.978;6.310;2023-05-10T05:10:21;10.30;;;9.00;;
54428;SDS011;40337;52.978;6.310;2023-05-10T05:12:47;9.70;;;8.77;;
54428;SDS011;40337;52.978;6.310;2023-05-10T05:15:12;9.48;;;8.52;;
54428;SDS011;40337;52.978;6.310;2023-05-10T05:17:38;9.40;;;8.43;;
54428;SDS011;40337;52.978;6.310;2023-05-10T05:20:04;8.38;;;7.57;;
54428;SDS011;40337;52.978;6.310;2023-05-10T05:22:30;8.40;;;7.60;;
54428;SDS011;40337;52.978;6.310;2023-05-10T05:24:55;8.20;;;7.40;;
54428;SDS011;40337;52.978;6.310;2023-05-10T05:27:23;8.23;;;7.43;;
54428;SDS011;40337;52.978;6.310;2023-05-10T05:29:54;8.68;;;7.15;;
54428;SDS011;40337;52.978;6.310;2023-05-10T05:32:20;7.72;;;7.03;;
54428;SDS011;40337;52.978;6.310;2023-05-10T05:34:46;7.03;;;6.32;;
54428;SDS011;40337;52.978;6.310;2023-05-10T05:37:16;7.25;;;6.55;;
54428;SDS011;40337;52.978;6.310;2023-05-10T05:39:42;7.50;;;6.80;;
54428;SDS011;40337;52.978;6.310;2023-05-10T05:42:09;7.32;;;6.25;;
54428;SDS011;40337;52.978;6.310;2023-05-10T05:44:35;6.60;;;5.90;;
54428;SDS011;40337;52.978;6.310;2023-05-10T05:47:00;7.22;;;6.25;;
54428;SDS011;40337;52.978;6.310;2023-05-10T05:49:26;6.18;;;5.57;;
54428;SDS011;40337;52.978;6.310;2023-05-10T05:51:52;6.63;;;6.03;;
54428;SDS011;40337;52.978;6.310;2023-05-10T05:54:17;6.97;;;6.28;;
54428;SDS011;40337;52.978;6.310;2023-05-10T05:56:43;6.70;;;5.97;;
54428;SDS011;40337;52.978;6.310;2023-05-10T05:59:09;6.55;;;5.90;;
54428;SDS011;40337;52.978;6.310;2023-05-10T06:01:38;6.57;;;5.85;;
54428;SDS011;40337;52.978;6.310;2023-05-10T06:04:03;6.55;;;5.88;;
54428;SDS011;40337;52.978;6.310;2023-05-10T06:06:29;7.00;;;6.30;;
54428;SDS011;40337;52.978;6.310;2023-05-10T06:08:54;7.30;;;6.40;;
54428;SDS011;40337;52.978;6.310;2023-05-10T06:11:20;6.15;;;5.53;;
54428;SDS011;40337;52.978;6.310;2023-05-10T06:13:48;5.60;;;5.00;;
54428;SDS011;40337;52.978;6.310;2023-05-10T06:16:14;5.80;;;4.90;;
54428;SDS011;40337;52.978;6.310;2023-05-10T06:18:39;5.13;;;4.38;;
54428;SDS011;40337;52.978;6.310;2023-05-10T06:21:05;5.50;;;4.85;;
54428;SDS011;40337;52.978;6.310;2023-05-10T06:23:31;5.78;;;4.35;;
54428;SDS011;40337;52.978;6.310;2023-05-10T06:25:56;4.47;;;3.70;;
54428;SDS011;40337;52.978;6.310;2023-05-10T06:28:22;4.82;;;3.55;;
54428;SDS011;40337;52.978;6.310;2023-05-10T06:30:47;4.35;;;3.63;;
54428;SDS011;40337;52.978;6.310;2023-05-10T06:33:13;4.32;;;3.28;;
54428;SDS011;40337;52.978;6.310;2023-05-10T06:35:39;4.30;;;3.60;;
54428;SDS011;40337;52.978;6.310;2023-05-10T06:38:04;5.20;;;4.00;;
54428;SDS011;40337;52.978;6.310;2023-05-10T06:40:30;5.07;;;4.38;;
54428;SDS011;40337;52.978;6.310;2023-05-10T06:42:55;4.50;;;3.70;;
54428;SDS011;40337;52.978;6.310;2023-05-10T06:45:21;4.97;;;4.05;;
54428;SDS011;40337;52.978;6.310;2023-05-10T06:47:46;4.68;;;3.90;;
54428;SDS011;40337;52.978;6.310;2023-05-10T06:50:12;5.95;;;4.50;;
54428;SDS011;40337;52.978;6.310;2023-05-10T06:52:38;4.80;;;4.00;;
54428;SDS011;40337;52.978;6.310;2023-05-10T06:55:04;4.90;;;4.28;;
54428;SDS011;40337;52.978;6.310;2023-05-10T06:57:30;5.45;;;4.30;;
54428;SDS011;40337;52.978;6.310;2023-05-10T06:59:56;4.90;;;4.10;;
54428;SDS011;40337;52.978;6.310;2023-05-10T07:02:22;4.80;;;3.97;;
54428;SDS011;40337;52.978;6.310;2023-05-10T07:04:48;4.97;;;4.30;;
54428;SDS011;40337;52.978;6.310;2023-05-10T07:07:14;5.60;;;4.50;;
54428;SDS011;40337;52.978;6.310;2023-05-10T07:09:39;5.18;;;4.13;;
54428;SDS011;40337;52.978;6.310;2023-05-10T07:12:05;5.32;;;4.20;;
54428;SDS011;40337;52.978;6.310;2023-05-10T07:14:31;5.18;;;4.60;;
54428;SDS011;40337;52.978;6.310;2023-05-10T07:16:56;5.03;;;3.95;;
54428;SDS011;40337;52.978;6.310;2023-05-10T07:19:22;4.95;;;4.45;;
54428;SDS011;40337;52.978;6.310;2023-05-10T07:21:48;5.35;;;4.45;;
54428;SDS011;40337;52.978;6.310;2023-05-10T07:24:13;5.70;;;5.00;;
54428;SDS011;40337;52.978;6.310;2023-05-10T07:26:39;6.22;;;4.70;;
54428;SDS011;40337;52.978;6.310;2023-05-10T07:29:04;6.38;;;5.07;;
54428;SDS011;40337;52.978;6.310;2023-05-10T07:31:30;5.95;;;5.20;;
54428;SDS011;40337;52.978;6.310;2023-05-10T07:33:55;5.47;;;4.85;;
54428;SDS011;40337;52.978;6.310;2023-05-10T07:36:21;6.13;;;5.13;;
54428;SDS011;40337;52.978;6.310;2023-05-10T07:38:47;6.53;;;5.60;;
54428;SDS011;40337;52.978;6.310;2023-05-10T07:41:12;6.03;;;5.30;;
54428;SDS011;40337;52.978;6.310;2023-05-10T07:43:38;6.40;;;4.78;;
54428;SDS011;40337;52.978;6.310;2023-05-10T07:46:03;4.72;;;4.10;;
54428;SDS011;40337;52.978;6.310;2023-05-10T07:48:30;5.63;;;4.25;;
54428;SDS011;40337;52.978;6.310;2023-05-10T07:50:56;5.15;;;4.13;;
54428;SDS011;40337;52.978;6.310;2023-05-10T07:53:21;6.45;;;4.40;;
54428;SDS011;40337;52.978;6.310;2023-05-10T07:55:50;5.95;;;4.32;;
54428;SDS011;40337;52.978;6.310;2023-05-10T07:58:19;5.55;;;4.25;;
54428;SDS011;40337;52.978;6.310;2023-05-10T08:00:44;4.95;;;4.07;;
54428;SDS011;40337;52.978;6.310;2023-05-10T08:03:10;5.05;;;3.70;;
54428;SDS011;40337;52.978;6.310;2023-05-10T08:05:36;5.35;;;4.25;;
54428;SDS011;40337;52.978;6.310;2023-05-10T08:08:01;6.18;;;4.47;;
54428;SDS011;40337;52.978;6.310;2023-05-10T08:10:27;5.10;;;3.95;;
54428;SDS011;40337;52.978;6.310;2023-05-10T08:12:52;6.85;;;4.80;;
54428;SDS011;40337;52.978;6.310;2023-05-10T08:15:18;6.13;;;4.90;;
54428;SDS011;40337;52.978;6.310;2023-05-10T08:17:43;7.15;;;4.80;;
54428;SDS011;40337;52.978;6.310;2023-05-10T08:20:09;5.47;;;4.50;;
54428;SDS011;40337;52.978;6.310;2023-05-10T08:22:35;6.88;;;4.80;;
54428;SDS011;40337;52.978;6.310;2023-05-10T08:25:00;5.80;;;4.40;;
54428;SDS011;40337;52.978;6.310;2023-05-10T08:27:26;7.05;;;4.80;;
54428;SDS011;40337;52.978;6.310;2023-05-10T08:29:51;6.07;;;4.50;;
54428;SDS011;40337;52.978;6.310;2023-05-10T08:32:17;6.43;;;4.72;;
54428;SDS011;40337;52.978;6.310;2023-05-10T08:34:43;6.82;;;4.40;;
54428;SDS011;40337;52.978;6.310;2023-05-10T08:37:08;5.25;;;4.20;;
54428;SDS011;40337;52.978;6.310;2023-05-10T08:39:35;5.32;;;4.30;;
54428;SDS011;40337;52.978;6.310;2023-05-10T08:42:01;5.90;;;4.07;;
54428;SDS011;40337;52.978;6.310;2023-05-10T08:44:30;5.35;;;3.92;;
54428;SDS011;40337;52.978;6.310;2023-05-10T08:46:57;5.55;;;4.10;;
54428;SDS011;40337;52.978;6.310;2023-05-10T08:49:28;5.47;;;3.70;;
54428;SDS011;40337;52.978;6.310;2023-05-10T08:51:56;6.22;;;3.85;;
54428;SDS011;40337;52.978;6.310;2023-05-10T08:54:24;4.72;;;3.42;;
54428;SDS011;40337;52.978;6.310;2023-05-10T08:56:50;5.15;;;3.78;;
54428;SDS011;40337;52.978;6.310;2023-05-10T08:59:16;4.90;;;3.88;;
54428;SDS011;40337;52.978;6.310;2023-05-10T09:01:42;4.43;;;3.05;;
54428;SDS011;40337;52.978;6.310;2023-05-10T09:04:12;5.40;;;3.60;;
54428;SDS011;40337;52.978;6.310;2023-05-10T09:06:37;4.97;;;3.25;;
54428;SDS011;40337;52.978;6.310;2023-05-10T09:09:03;4.53;;;3.42;;
54428;SDS011;40337;52.978;6.310;2023-05-10T09:11:29;4.80;;;3.60;;
54428;SDS011;40337;52.978;6.310;2023-05-10T09:13:55;4.60;;;3.60;;
54428;SDS011;40337;52.978;6.310;2023-05-10T09:16:21;4.28;;;3.42;;
54428;SDS011;40337;52.978;6.310;2023-05-10T09:18:48;4.75;;;3.60;;
54428;SDS011;40337;52.978;6.310;2023-05-10T09:21:14;4.97;;;3.72;;
54428;SDS011;40337;52.978;6.310;2023-05-10T09:23:44;4.43;;;3.72;;
54428;SDS011;40337;52.978;6.310;2023-05-10T09:26:10;4.78;;;3.53;;
54428;SDS011;40337;52.978;6.310;2023-05-10T09:28:58;6.05;;;3.80;;
54428;SDS011;40337;52.978;6.310;2023-05-10T09:31:23;4.95;;;3.78;;
54428;SDS011;40337;52.978;6.310;2023-05-10T09:33:52;4.53;;;3.60;;
54428;SDS011;40337;52.978;6.310;2023-05-10T09:36:18;4.55;;;3.95;;
54428;SDS011;40337;52.978;6.310;2023-05-10T09:38:48;6.03;;;4.00;;
54428;SDS011;40337;52.978;6.310;2023-05-10T09:41:20;4.65;;;3.90;;
54428;SDS011;40337;52.978;6.310;2023-05-10T09:43:47;5.47;;;4.00;;
54428;SDS011;40337;52.978;6.310;2023-05-10T09:46:13;4.97;;;4.28;;
54428;SDS011;40337;52.978;6.310;2023-05-10T09:48:43;4.75;;;3.85;;
54428;SDS011;40337;52.978;6.310;2023-05-10T09:51:24;4.63;;;3.80;;
54428;SDS011;40337;52.978;6.310;2023-05-10T09:54:11;4.43;;;3.50;;
54428;SDS011;40337;52.978;6.310;2023-05-10T09:56:38;4.47;;;3.70;;
54428;SDS011;40337;52.978;6.310;2023-05-10T09:59:05;5.18;;;3.72;;
54428;SDS011;40337;52.978;6.310;2023-05-10T10:01:36;4.90;;;3.67;;
54428;SDS011;40337;52.978;6.310;2023-05-10T10:04:03;6.38;;;3.90;;
54428;SDS011;40337;52.978;6.310;2023-05-10T10:06:34;5.00;;;4.10;;
54428;SDS011;40337;52.978;6.310;2023-05-10T10:09:04;5.10;;;4.18;;
54428;SDS011;40337;52.978;6.310;2023-05-10T10:11:31;5.22;;;4.57;;
54428;SDS011;40337;52.978;6.310;2023-05-10T10:13:58;5.55;;;4.43;;
54428;SDS011;40337;52.978;6.310;2023-05-10T10:16:24;5.38;;;4.53;;
54428;SDS011;40337;52.978;6.310;2023-05-10T10:18:51;8.07;;;6.82;;
54428;SDS011;40337;52.978;6.310;2023-05-10T10:21:17;5.75;;;4.60;;
54428;SDS011;40337;52.978;6.310;2023-05-10T10:23:43;6.30;;;5.00;;
54428;SDS011;40337;52.978;6.310;2023-05-10T10:26:09;6.80;;;5.43;;
54428;SDS011;40337;52.978;6.310;2023-05-10T10:28:39;7.75;;;5.53;;
54428;SDS011;40337;52.978;6.310;2023-05-10T10:31:36;6.68;;;5.15;;
54428;SDS011;40337;52.978;6.310;2023-05-10T10:34:07;6.97;;;5.32;;
54428;SDS011;40337;52.978;6.310;2023-05-10T10:36:47;5.82;;;5.22;;
54428;SDS011;40337;52.978;6.310;2023-05-10T10:39:13;6.10;;;5.50;;
54428;SDS011;40337;52.978;6.310;2023-05-10T10:41:55;6.93;;;5.55;;
54428;SDS011;40337;52.978;6.310;2023-05-10T10:47:05;6.22;;;5.25;;
54428;SDS011;40337;52.978;6.310;2023-05-10T10:55:08;7.50;;;5.78;;
54428;SDS011;40337;52.978;6.310;2023-05-10T10:57:54;6.88;;;5.82;;
54428;SDS011;40337;52.978;6.310;2023-05-10T11:00:38;6.75;;;5.45;;
54428;SDS011;40337;52.978;6.310;2023-05-10T11:03:08;6.03;;;5.30;;
54428;SDS011;40337;52.978;6.310;2023-05-10T11:05:41;5.82;;;4.70;;
54428;SDS011;40337;52.978;6.310;2023-05-10T11:08:15;6.88;;;4.70;;
54428;SDS011;40337;52.978;6.310;2023-05-10T11:10:53;7.13;;;5.10;;
54428;SDS011;40337;52.978;6.310;2023-05-10T11:13:41;6.82;;;5.38;;
54428;SDS011;40337;52.978;6.310;2023-05-10T11:18:39;7.47;;;5.65;;
54428;SDS011;40337;52.978;6.310;2023-05-10T11:21:05;7.57;;;5.50;;
54428;SDS011;40337;52.978;6.310;2023-05-10T11:26:13;5.65;;;5.05;;
54428;SDS011;40337;52.978;6.310;2023-05-10T11:28:42;7.00;;;5.10;;
54428;SDS011;40337;52.978;6.310;2023-05-10T11:31:09;5.80;;;4.97;;
54428;SDS011;40337;52.978;6.310;2023-05-10T11:36:17;6.38;;;4.97;;
54428;SDS011;40337;52.978;6.310;2023-05-10T11:38:44;5.93;;;4.90;;
54428;SDS011;40337;52.978;6.310;2023-05-10T11:41:11;5.95;;;5.03;;
54428;SDS011;40337;52.978;6.310;2023-05-10T11:43:40;7.75;;;4.80;;
54428;SDS011;40337;52.978;6.310;2023-05-10T11:46:07;6.65;;;5.07;;
54428;SDS011;40337;52.978;6.310;2023-05-10T11:48:33;5.55;;;4.50;;
54428;SDS011;40337;52.978;6.310;2023-05-10T11:51:00;7.28;;;4.72;;
54428;SDS011;40337;52.978;6.310;2023-05-10T11:53:26;6.18;;;4.28;;
54428;SDS011;40337;52.978;6.310;2023-05-10T11:55:53;6.22;;;4.78;;
54428;SDS011;40337;52.978;6.310;2023-05-10T11:58:18;7.88;;;5.53;;
54428;SDS011;40337;52.978;6.310;2023-05-10T12:00:46;8.32;;;5.53;;
54428;SDS011;40337;52.978;6.310;2023-05-10T12:03:12;8.20;;;6.07;;
54428;SDS011;40337;52.978;6.310;2023-05-10T12:05:38;7.78;;;6.20;;
54428;SDS011;40337;52.978;6.310;2023-05-10T12:08:13;8.88;;;6.47;;
54428;SDS011;40337;52.978;6.310;2023-05-10T12:10:39;8.13;;;6.50;;
54428;SDS011;40337;52.978;6.310;2023-05-10T12:13:05;7.80;;;6.50;;
54428;SDS011;40337;52.978;6.310;2023-05-10T12:15:35;9.68;;;6.97;;
54428;SDS011;40337;52.978;6.310;2023-05-10T12:18:01;9.02;;;7.75;;
54428;SDS011;40337;52.978;6.310;2023-05-10T12:20:27;10.00;;;7.30;;
54428;SDS011;40337;52.978;6.310;2023-05-10T12:22:54;8.55;;;7.13;;
54428;SDS011;40337;52.978;6.310;2023-05-10T12:25:22;10.98;;;6.90;;
54428;SDS011;40337;52.978;6.310;2023-05-10T12:27:53;8.50;;;7.15;;
54428;SDS011;40337;52.978;6.310;2023-05-10T12:30:23;8.82;;;7.38;;
54428;SDS011;40337;52.978;6.310;2023-05-10T12:32:50;9.10;;;7.43;;
54428;SDS011;40337;52.978;6.310;2023-05-10T12:35:16;9.70;;;7.63;;
54428;SDS011;40337;52.978;6.310;2023-05-10T12:37:42;8.68;;;7.03;;
54428;SDS011;40337;52.978;6.310;2023-05-10T12:40:08;8.93;;;7.07;;
54428;SDS011;40337;52.978;6.310;2023-05-10T12:42:38;8.68;;;7.22;;
54428;SDS011;40337;52.978;6.310;2023-05-10T12:45:05;9.35;;;7.47;;
54428;SDS011;40337;52.978;6.310;2023-05-10T12:47:31;10.23;;;7.68;;
54428;SDS011;40337;52.978;6.310;2023-05-10T12:49:57;8.50;;;7.60;;
54428;SDS011;40337;52.978;6.310;2023-05-10T12:52:25;10.80;;;7.75;;
54428;SDS011;40337;52.978;6.310;2023-05-10T12:54:51;9.90;;;7.80;;
54428;SDS011;40337;52.978;6.310;2023-05-10T12:57:17;8.45;;;7.43;;
54428;SDS011;40337;52.978;6.310;2023-05-10T12:59:43;8.23;;;6.93;;
54428;SDS011;40337;52.978;6.310;2023-05-10T13:02:09;8.75;;;7.15;;
54428;SDS011;40337;52.978;6.310;2023-05-10T13:04:35;8.77;;;7.07;;
54428;SDS011;40337;52.978;6.310;2023-05-10T13:07:04;9.07;;;7.10;;
54428;SDS011;40337;52.978;6.310;2023-05-10T13:09:30;8.80;;;7.40;;
54428;SDS011;40337;52.978;6.310;2023-05-10T13:11:56;8.55;;;7.32;;
54428;SDS011;40337;52.978;6.310;2023-05-10T13:14:21;8.60;;;7.30;;
54428;SDS011;40337;52.978;6.310;2023-05-10T13:16:47;9.60;;;7.80;;
54428;SDS011;40337;52.978;6.310;2023-05-10T13:19:13;8.90;;;7.72;;
54428;SDS011;40337;52.978;6.310;2023-05-10T13:21:39;9.23;;;7.70;;
54428;SDS011;40337;52.978;6.310;2023-05-10T13:24:07;9.20;;;8.13;;
54428;SDS011;40337;52.978;6.310;2023-05-10T13:26:33;10.05;;;7.80;;
54428;SDS011;40337;52.978;6.310;2023-05-10T13:28:59;9.00;;;7.25;;
54428;SDS011;40337;52.978;6.310;2023-05-10T13:31:24;7.95;;;6.68;;
54428;SDS011;40337;52.978;6.310;2023-05-10T13:33:50;8.00;;;6.50;;
54428;SDS011;40337;52.978;6.310;2023-05-10T13:36:15;9.20;;;6.53;;
54428;SDS011;40337;52.978;6.310;2023-05-10T13:38:41;9.05;;;5.90;;
54428;SDS011;40337;52.978;6.310;2023-05-10T13:41:06;7.97;;;6.45;;
54428;SDS011;40337;52.978;6.310;2023-05-10T13:43:32;7.25;;;6.43;;
54428;SDS011;40337;52.978;6.310;2023-05-10T13:45:58;8.55;;;6.47;;
54428;SDS011;40337;52.978;6.310;2023-05-10T13:48:23;7.00;;;5.55;;
54428;SDS011;40337;52.978;6.310;2023-05-10T13:50:49;7.75;;;6.20;;
54428;SDS011;40337;52.978;6.310;2023-05-10T13:53:14;6.47;;;5.75;;
54428;SDS011;40337;52.978;6.310;2023-05-10T13:55:40;7.18;;;5.85;;
54428;SDS011;40337;52.978;6.310;2023-05-10T13:58:06;8.60;;;6.60;;
54428;SDS011;40337;52.978;6.310;2023-05-10T14:00:32;7.95;;;6.43;;
54428;SDS011;40337;52.978;6.310;2023-05-10T14:02:57;8.73;;;6.97;;
54428;SDS011;40337;52.978;6.310;2023-05-10T14:05:23;8.02;;;6.85;;
54428;SDS011;40337;52.978;6.310;2023-05-10T14:07:49;7.45;;;6.45;;
54428;SDS011;40337;52.978;6.310;2023-05-10T14:10:15;9.18;;;7.00;;
54428;SDS011;40337;52.978;6.310;2023-05-10T14:12:40;8.50;;;7.38;;
54428;SDS011;40337;52.978;6.310;2023-05-10T14:15:06;7.55;;;6.75;;
54428;SDS011;40337;52.978;6.310;2023-05-10T14:17:32;8.23;;;6.55;;
54428;SDS011;40337;52.978;6.310;2023-05-10T14:19:58;7.38;;;6.25;;
54428;SDS011;40337;52.978;6.310;2023-05-10T14:22:23;7.40;;;6.40;;
54428;SDS011;40337;52.978;6.310;2023-05-10T14:24:49;6.95;;;5.72;;
54428;SDS011;40337;52.978;6.310;2023-05-10T14:27:15;6.60;;;5.90;;
54428;SDS011;40337;52.978;6.310;2023-05-10T14:29:40;6.07;;;5.47;;
54428;SDS011;40337;52.978;6.310;2023-05-10T14:32:06;6.28;;;5.25;;
54428;SDS011;40337;52.978;6.310;2023-05-10T14:34:32;6.22;;;4.60;;
54428;SDS011;40337;52.978;6.310;2023-05-10T14:36:58;6.25;;;4.90;;
54428;SDS011;40337;52.978;6.310;2023-05-10T14:39:23;6.43;;;5.53;;
54428;SDS011;40337;52.978;6.310;2023-05-10T14:41:49;6.90;;;5.88;;
54428;SDS011;40337;52.978;6.310;2023-05-10T14:44:16;6.95;;;5.95;;
54428;SDS011;40337;52.978;6.310;2023-05-10T14:46:41;7.75;;;6.07;;
54428;SDS011;40337;52.978;6.310;2023-05-10T14:49:07;8.05;;;6.00;;
54428;SDS011;40337;52.978;6.310;2023-05-10T14:51:33;6.07;;;5.40;;
54428;SDS011;40337;52.978;6.310;2023-05-10T14:53:58;7.10;;;5.85;;
54428;SDS011;40337;52.978;6.310;2023-05-10T14:56:24;6.97;;;5.50;;
54428;SDS011;40337;52.978;6.310;2023-05-10T14:58:51;6.35;;;5.25;;
54428;SDS011;40337;52.978;6.310;2023-05-10T15:01:16;7.65;;;5.53;;
54428;SDS011;40337;52.978;6.310;2023-05-10T15:03:42;7.90;;;5.63;;
54428;SDS011;40337;52.978;6.310;2023-05-10T15:06:07;8.18;;;6.18;;
54428;SDS011;40337;52.978;6.310;2023-05-10T15:08:33;7.30;;;5.70;;
54428;SDS011;40337;52.978;6.310;2023-05-10T15:10:59;7.28;;;5.60;;